createdAt,value
2022-11-25T08:41:03.812Z,26.91
2022-11-25T08:42:51.241Z,26.91
2022-11-25T08:43:27.886Z,26.96
2022-11-25T08:43:52.111Z,26.80
2022-11-25T08:44:22.448Z,27.02
2022-11-25T08:44:52.228Z,26.91
2022-11-25T08:45:22.378Z,26.91
2022-11-25T08:45:52.374Z,27.02
2022-11-25T08:46:22.524Z,26.59
2022-11-25T08:46:52.621Z,26.86
2022-11-25T08:47:23.249Z,27.02
2022-11-25T08:47:53.273Z,26.80
2022-11-25T08:48:22.933Z,26.96
2022-11-25T08:48:52.915Z,26.59
2022-11-25T08:49:23.872Z,26.96
2022-11-25T08:49:53.669Z,26.86
2022-11-25T08:50:24.067Z,26.80
2022-11-25T08:50:53.231Z,26.96
2022-11-25T08:51:23.425Z,26.91
2022-11-25T08:51:53.134Z,26.80
2022-11-25T08:52:23.278Z,26.86
2022-11-25T08:52:53.360Z,26.59
2022-11-25T08:53:23.239Z,26.86
2022-11-25T08:53:53.338Z,26.86
2022-11-25T08:54:23.965Z,26.75
2022-11-25T08:54:53.783Z,26.86
2022-11-25T08:55:24.257Z,26.75
2022-11-25T08:55:53.719Z,26.96
2022-11-25T08:56:26.203Z,26.96
2022-11-25T08:56:53.786Z,26.96
2022-11-25T08:57:24.499Z,26.80
2022-11-25T08:57:53.976Z,27.02
2022-11-25T08:58:23.919Z,26.96
2022-11-25T08:58:53.997Z,26.96
2022-11-25T08:59:24.073Z,26.80
2022-11-25T08:59:54.198Z,27.02
2022-11-25T09:00:24.197Z,26.91
2022-11-25T09:00:54.237Z,26.53
2022-11-25T09:01:25.066Z,26.91
2022-11-25T09:01:54.352Z,27.02
2022-11-25T09:02:24.483Z,27.02
2022-11-25T09:02:54.418Z,26.86
2022-11-25T09:03:24.897Z,26.91
2022-11-25T09:03:54.532Z,26.96
2022-11-25T09:04:24.619Z,27.02
2022-11-25T09:04:54.667Z,27.07
2022-11-25T09:05:24.739Z,26.96
2022-11-25T09:05:54.851Z,26.86
2022-11-25T09:06:24.901Z,26.96
2022-11-25T09:06:54.919Z,26.91
2022-11-25T09:07:30.503Z,26.64
2022-11-25T09:07:55.287Z,26.91
2022-11-25T09:08:25.237Z,26.96
2022-11-25T09:08:55.330Z,26.91
2022-11-25T09:09:25.282Z,26.86
2022-11-25T09:09:55.301Z,26.91
2022-11-25T09:10:25.349Z,26.91
2022-11-25T09:10:55.436Z,26.91
2022-11-25T09:11:25.647Z,26.69
2022-11-25T09:11:55.527Z,26.80
2022-11-25T09:12:25.750Z,26.96
2022-11-25T09:12:56.088Z,26.91
2022-11-25T09:13:25.740Z,26.86
2022-11-25T09:13:56.264Z,26.91
2022-11-25T09:14:26.013Z,26.96
2022-11-25T09:15:01.392Z,26.91
2022-11-25T09:15:26.095Z,26.96
2022-11-25T09:15:56.926Z,26.91
2022-11-25T09:16:27.077Z,27.02
2022-11-25T09:16:56.165Z,26.59
2022-11-25T09:17:26.503Z,26.96
2022-11-25T09:17:57.552Z,26.91
2022-11-25T09:18:26.620Z,27.02
2022-11-25T09:18:57.031Z,26.64
2022-11-25T09:19:26.897Z,26.86
2022-11-25T09:19:56.751Z,26.96
2022-11-25T09:20:27.850Z,26.91
2022-11-25T09:20:58.098Z,26.80
2022-11-25T09:21:26.835Z,26.91
2022-11-25T09:21:59.369Z,26.96
2022-11-25T09:22:27.895Z,26.86
2022-11-25T09:22:56.883Z,27.02
2022-11-25T09:23:26.982Z,26.86
2022-11-25T09:23:57.087Z,27.02
2022-11-25T09:24:27.159Z,27.02
2022-11-25T09:24:57.974Z,26.91
2022-11-25T09:25:27.387Z,26.96
2022-11-25T09:25:57.317Z,26.64
2022-11-25T09:26:27.420Z,26.91
2022-11-25T09:26:57.493Z,26.96
2022-11-25T09:27:27.680Z,26.80
2022-11-25T09:27:57.625Z,26.96
2022-11-25T09:28:27.721Z,27.02
2022-11-25T09:28:57.776Z,26.96
2022-11-25T09:29:27.918Z,26.96
2022-11-25T09:29:57.898Z,26.86
2022-11-25T09:30:28.049Z,26.80
2022-11-25T09:30:58.092Z,26.86
2022-11-25T09:31:28.151Z,26.86
2022-11-25T09:31:59.641Z,26.80
2022-11-25T09:32:28.239Z,26.80
2022-11-25T09:32:58.162Z,26.64
2022-11-25T09:33:31.428Z,26.96
2022-11-25T09:33:58.300Z,26.96
2022-11-25T09:34:28.377Z,26.86
2022-11-25T09:35:02.370Z,26.59
2022-11-25T09:35:29.120Z,27.02
2022-11-25T09:35:58.570Z,26.43
2022-11-25T09:36:28.789Z,26.96
2022-11-25T09:36:58.700Z,26.91
2022-11-25T09:37:29.592Z,27.02
2022-11-25T10:47:43.221Z,2.04
2022-11-25T10:51:03.606Z,2.04
2022-11-25T10:51:08.600Z,3.60
2022-11-25T10:51:39.060Z,3.60
2022-11-25T10:52:08.764Z,3.60
2022-11-25T10:52:38.967Z,3.65
2022-11-25T10:53:09.112Z,3.60
2022-11-25T10:53:39.205Z,3.65
2022-11-25T10:54:09.581Z,3.60
2022-11-25T10:54:40.431Z,3.60
2022-11-25T10:59:48.729Z,0.48
2022-11-25T11:00:16.896Z,0.70
2022-11-25T11:00:41.581Z,0.48
2022-11-25T11:01:11.438Z,0.54
2022-11-25T11:01:41.698Z,0.70
2022-11-25T11:02:11.606Z,0.54
2022-11-25T11:02:42.673Z,0.48
2022-11-25T11:03:17.321Z,0.48
2022-11-25T11:03:41.852Z,0.70
